Cherkasy, Ukraine
Current Conditions -  °F | °C
As of 10:30 PM on Saturday 20 Dec 2014 (Local Time) from UKBB Reporting Station
Clear Clear  
Wind Chill: 30°   Ceiling: Unl
Heat Index: 36°   Visibility: 6mi
Dew Point: 32°   Wind: 7mph
Humidity: 87%   Direction: 230°SW
Pressure: 29.85"   Gusts: NA
Location:  49.43°N, 32.07°E
Report Text: UKBB 201930Z 23003MPS CAVOK 02/00 Q1011 88290050 NOSIG
Loading
Personal Weather Stations






























Interactive Weather Map New forecast layout! Learn more

10-Day Weather Forecast

Advertisements
Track Severe Weather on mobile